sensor_id;sensor_type;location;lat;lon;timestamp;P1;durP1;ratioP1;P2;durP2;ratioP2
9124;SDS011;4597;48.730;9.114;2024-02-23T00:00:04;0.27;;;0.27;;
9124;SDS011;4597;48.730;9.114;2024-02-23T00:02:32;4.33;;;0.40;;
9124;SDS011;4597;48.730;9.114;2024-02-23T00:04:58;0.30;;;0.30;;
9124;SDS011;4597;48.730;9.114;2024-02-23T00:07:23;0.63;;;0.27;;
9124;SDS011;4597;48.730;9.114;2024-02-23T00:09:49;0.33;;;0.30;;
9124;SDS011;4597;48.730;9.114;2024-02-23T00:12:15;2.47;;;0.30;;
9124;SDS011;4597;48.730;9.114;2024-02-23T00:14:40;1.77;;;0.57;;
9124;SDS011;4597;48.730;9.114;2024-02-23T00:17:06;0.73;;;0.53;;
9124;SDS011;4597;48.730;9.114;2024-02-23T00:19:31;0.67;;;0.30;;
9124;SDS011;4597;48.730;9.114;2024-02-23T00:21:57;0.40;;;0.40;;
9124;SDS011;4597;48.730;9.114;2024-02-23T00:24:24;0.50;;;0.50;;
9124;SDS011;4597;48.730;9.114;2024-02-23T00:26:50;1.33;;;0.47;;
9124;SDS011;4597;48.730;9.114;2024-02-23T00:29:16;0.63;;;0.30;;
9124;SDS011;4597;48.730;9.114;2024-02-23T00:31:42;1.17;;;0.60;;
9124;SDS011;4597;48.730;9.114;2024-02-23T00:34:10;1.30;;;0.40;;
9124;SDS011;4597;48.730;9.114;2024-02-23T00:36:38;1.10;;;0.60;;
9124;SDS011;4597;48.730;9.114;2024-02-23T00:39:04;0.87;;;0.60;;
9124;SDS011;4597;48.730;9.114;2024-02-23T00:41:29;0.43;;;0.43;;
9124;SDS011;4597;48.730;9.114;2024-02-23T00:43:55;0.50;;;0.50;;
9124;SDS011;4597;48.730;9.114;2024-02-23T00:46:20;0.77;;;0.50;;
9124;SDS011;4597;48.730;9.114;2024-02-23T00:48:46;0.50;;;0.50;;
9124;SDS011;4597;48.730;9.114;2024-02-23T00:51:12;2.60;;;0.40;;
9124;SDS011;4597;48.730;9.114;2024-02-23T00:53:37;0.73;;;0.50;;
9124;SDS011;4597;48.730;9.114;2024-02-23T00:56:03;0.30;;;0.30;;
9124;SDS011;4597;48.730;9.114;2024-02-23T00:58:29;1.17;;;0.50;;
9124;SDS011;4597;48.730;9.114;2024-02-23T01:00:55;1.23;;;0.50;;
9124;SDS011;4597;48.730;9.114;2024-02-23T01:03:20;2.77;;;0.30;;
9124;SDS011;4597;48.730;9.114;2024-02-23T01:05:46;1.77;;;0.60;;
9124;SDS011;4597;48.730;9.114;2024-02-23T01:08:11;1.00;;;0.33;;
9124;SDS011;4597;48.730;9.114;2024-02-23T01:10:37;0.57;;;0.57;;
9124;SDS011;4597;48.730;9.114;2024-02-23T01:13:02;0.40;;;0.40;;
9124;SDS011;4597;48.730;9.114;2024-02-23T01:15:30;0.40;;;0.40;;
9124;SDS011;4597;48.730;9.114;2024-02-23T01:17:55;0.67;;;0.60;;
9124;SDS011;4597;48.730;9.114;2024-02-23T01:20:21;2.10;;;0.70;;
9124;SDS011;4597;48.730;9.114;2024-02-23T01:22:47;0.83;;;0.60;;
9124;SDS011;4597;48.730;9.114;2024-02-23T01:25:12;0.43;;;0.43;;
9124;SDS011;4597;48.730;9.114;2024-02-23T01:27:40;0.53;;;0.53;;
9124;SDS011;4597;48.730;9.114;2024-02-23T01:30:06;1.20;;;0.80;;
9124;SDS011;4597;48.730;9.114;2024-02-23T01:32:32;1.60;;;0.60;;
9124;SDS011;4597;48.730;9.114;2024-02-23T01:34:58;1.70;;;0.50;;
9124;SDS011;4597;48.730;9.114;2024-02-23T01:37:23;0.30;;;0.30;;
9124;SDS011;4597;48.730;9.114;2024-02-23T01:39:49;1.80;;;0.43;;
9124;SDS011;4597;48.730;9.114;2024-02-23T01:42:14;1.13;;;0.50;;
9124;SDS011;4597;48.730;9.114;2024-02-23T01:44:40;0.50;;;0.50;;
9124;SDS011;4597;48.730;9.114;2024-02-23T01:47:05;0.50;;;0.50;;
9124;SDS011;4597;48.730;9.114;2024-02-23T01:49:31;0.53;;;0.53;;
9124;SDS011;4597;48.730;9.114;2024-02-23T01:51:58;0.50;;;0.30;;
9124;SDS011;4597;48.730;9.114;2024-02-23T01:54:25;0.67;;;0.53;;
9124;SDS011;4597;48.730;9.114;2024-02-23T01:56:53;1.60;;;0.50;;
9124;SDS011;4597;48.730;9.114;2024-02-23T01:59:19;0.90;;;0.70;;
9124;SDS011;4597;48.730;9.114;2024-02-23T02:01:45;0.30;;;0.30;;
9124;SDS011;4597;48.730;9.114;2024-02-23T02:04:11;1.63;;;0.47;;
9124;SDS011;4597;48.730;9.114;2024-02-23T02:06:37;0.37;;;0.37;;
9124;SDS011;4597;48.730;9.114;2024-02-23T02:09:02;1.00;;;0.37;;
9124;SDS011;4597;48.730;9.114;2024-02-23T02:11:28;0.60;;;0.40;;
9124;SDS011;4597;48.730;9.114;2024-02-23T02:13:53;0.37;;;0.37;;
9124;SDS011;4597;48.730;9.114;2024-02-23T02:16:19;1.17;;;0.40;;
9124;SDS011;4597;48.730;9.114;2024-02-23T02:18:44;0.27;;;0.27;;
9124;SDS011;4597;48.730;9.114;2024-02-23T02:21:11;0.57;;;0.50;;
9124;SDS011;4597;48.730;9.114;2024-02-23T02:23:36;0.40;;;0.40;;
9124;SDS011;4597;48.730;9.114;2024-02-23T02:26:02;0.30;;;0.30;;
9124;SDS011;4597;48.730;9.114;2024-02-23T02:28:28;0.30;;;0.30;;
9124;SDS011;4597;48.730;9.114;2024-02-23T02:30:54;1.33;;;0.57;;
9124;SDS011;4597;48.730;9.114;2024-02-23T02:33:20;0.57;;;0.57;;
9124;SDS011;4597;48.730;9.114;2024-02-23T02:35:46;0.30;;;0.30;;
9124;SDS011;4597;48.730;9.114;2024-02-23T02:38:12;0.47;;;0.40;;
9124;SDS011;4597;48.730;9.114;2024-02-23T02:40:38;0.40;;;0.37;;
9124;SDS011;4597;48.730;9.114;2024-02-23T02:43:03;0.50;;;0.50;;
9124;SDS011;4597;48.730;9.114;2024-02-23T02:45:29;0.40;;;0.40;;
9124;SDS011;4597;48.730;9.114;2024-02-23T02:47:54;0.40;;;0.40;;
9124;SDS011;4597;48.730;9.114;2024-02-23T02:50:21;0.40;;;0.40;;
9124;SDS011;4597;48.730;9.114;2024-02-23T02:52:46;0.30;;;0.30;;
9124;SDS011;4597;48.730;9.114;2024-02-23T02:55:12;0.40;;;0.40;;
9124;SDS011;4597;48.730;9.114;2024-02-23T02:57:38;0.83;;;0.57;;
9124;SDS011;4597;48.730;9.114;2024-02-23T03:00:04;1.70;;;0.70;;
9124;SDS011;4597;48.730;9.114;2024-02-23T03:02:30;0.53;;;0.40;;
9124;SDS011;4597;48.730;9.114;2024-02-23T03:04:59;0.37;;;0.37;;
9124;SDS011;4597;48.730;9.114;2024-02-23T03:07:25;0.97;;;0.60;;
9124;SDS011;4597;48.730;9.114;2024-02-23T03:09:50;0.43;;;0.30;;
9124;SDS011;4597;48.730;9.114;2024-02-23T03:12:16;0.83;;;0.30;;
9124;SDS011;4597;48.730;9.114;2024-02-23T03:14:42;0.40;;;0.40;;
9124;SDS011;4597;48.730;9.114;2024-02-23T03:17:08;0.83;;;0.63;;
9124;SDS011;4597;48.730;9.114;2024-02-23T03:19:37;0.93;;;0.47;;
9124;SDS011;4597;48.730;9.114;2024-02-23T03:22:03;0.40;;;0.40;;
9124;SDS011;4597;48.730;9.114;2024-02-23T03:24:29;1.67;;;0.50;;
9124;SDS011;4597;48.730;9.114;2024-02-23T03:26:55;0.97;;;0.40;;
9124;SDS011;4597;48.730;9.114;2024-02-23T03:29:21;0.60;;;0.20;;
9124;SDS011;4597;48.730;9.114;2024-02-23T03:31:50;0.37;;;0.37;;
9124;SDS011;4597;48.730;9.114;2024-02-23T03:34:15;0.90;;;0.50;;
9124;SDS011;4597;48.730;9.114;2024-02-23T03:36:42;0.30;;;0.30;;
9124;SDS011;4597;48.730;9.114;2024-02-23T03:39:07;0.30;;;0.30;;
9124;SDS011;4597;48.730;9.114;2024-02-23T03:41:33;0.77;;;0.67;;
9124;SDS011;4597;48.730;9.114;2024-02-23T03:43:58;0.30;;;0.30;;
9124;SDS011;4597;48.730;9.114;2024-02-23T03:46:24;0.30;;;0.30;;
9124;SDS011;4597;48.730;9.114;2024-02-23T03:48:50;1.40;;;0.40;;
9124;SDS011;4597;48.730;9.114;2024-02-23T03:51:16;0.30;;;0.30;;
9124;SDS011;4597;48.730;9.114;2024-02-23T03:53:42;1.50;;;0.40;;
9124;SDS011;4597;48.730;9.114;2024-02-23T03:56:08;0.30;;;0.30;;
9124;SDS011;4597;48.730;9.114;2024-02-23T03:58:33;0.40;;;0.40;;
9124;SDS011;4597;48.730;9.114;2024-02-23T04:00:59;0.50;;;0.50;;
9124;SDS011;4597;48.730;9.114;2024-02-23T04:03:24;0.60;;;0.40;;
9124;SDS011;4597;48.730;9.114;2024-02-23T04:05:50;0.50;;;0.50;;
9124;SDS011;4597;48.730;9.114;2024-02-23T04:08:15;0.30;;;0.30;;
9124;SDS011;4597;48.730;9.114;2024-02-23T04:10:41;0.40;;;0.40;;
9124;SDS011;4597;48.730;9.114;2024-02-23T04:13:06;1.43;;;0.40;;
9124;SDS011;4597;48.730;9.114;2024-02-23T04:15:32;1.10;;;0.50;;
9124;SDS011;4597;48.730;9.114;2024-02-23T04:17:57;1.07;;;0.60;;
9124;SDS011;4597;48.730;9.114;2024-02-23T04:20:23;0.40;;;0.40;;
9124;SDS011;4597;48.730;9.114;2024-02-23T04:22:48;0.50;;;0.50;;
9124;SDS011;4597;48.730;9.114;2024-02-23T04:25:14;1.60;;;0.80;;
9124;SDS011;4597;48.730;9.114;2024-02-23T04:27:39;0.53;;;0.40;;
9124;SDS011;4597;48.730;9.114;2024-02-23T04:30:05;1.80;;;0.50;;
9124;SDS011;4597;48.730;9.114;2024-02-23T04:32:31;0.70;;;0.50;;
9124;SDS011;4597;48.730;9.114;2024-02-23T04:34:57;0.40;;;0.40;;
9124;SDS011;4597;48.730;9.114;2024-02-23T04:37:22;1.40;;;0.70;;
9124;SDS011;4597;48.730;9.114;2024-02-23T04:39:48;1.63;;;0.43;;
9124;SDS011;4597;48.730;9.114;2024-02-23T04:42:13;1.13;;;0.57;;
9124;SDS011;4597;48.730;9.114;2024-02-23T04:44:41;0.40;;;0.40;;
9124;SDS011;4597;48.730;9.114;2024-02-23T04:47:07;0.60;;;0.60;;
9124;SDS011;4597;48.730;9.114;2024-02-23T04:49:32;0.53;;;0.37;;
9124;SDS011;4597;48.730;9.114;2024-02-23T04:51:58;1.17;;;0.50;;
9124;SDS011;4597;48.730;9.114;2024-02-23T04:54:23;2.27;;;0.53;;
9124;SDS011;4597;48.730;9.114;2024-02-23T04:56:49;0.50;;;0.50;;
9124;SDS011;4597;48.730;9.114;2024-02-23T04:59:15;1.50;;;0.60;;
9124;SDS011;4597;48.730;9.114;2024-02-23T05:01:41;2.83;;;0.80;;
9124;SDS011;4597;48.730;9.114;2024-02-23T05:04:06;0.60;;;0.60;;
9124;SDS011;4597;48.730;9.114;2024-02-23T05:06:32;1.53;;;0.70;;
9124;SDS011;4597;48.730;9.114;2024-02-23T05:08:57;0.50;;;0.50;;
9124;SDS011;4597;48.730;9.114;2024-02-23T05:11:23;1.10;;;0.50;;
9124;SDS011;4597;48.730;9.114;2024-02-23T05:13:48;2.93;;;0.50;;
9124;SDS011;4597;48.730;9.114;2024-02-23T05:16:14;0.93;;;0.53;;
9124;SDS011;4597;48.730;9.114;2024-02-23T05:18:39;0.40;;;0.40;;
9124;SDS011;4597;48.730;9.114;2024-02-23T05:21:06;0.83;;;0.67;;
9124;SDS011;4597;48.730;9.114;2024-02-23T05:23:32;2.87;;;0.60;;
9124;SDS011;4597;48.730;9.114;2024-02-23T05:25:57;1.83;;;0.50;;
9124;SDS011;4597;48.730;9.114;2024-02-23T05:28:23;0.40;;;0.40;;
9124;SDS011;4597;48.730;9.114;2024-02-23T05:30:48;1.27;;;0.43;;
9124;SDS011;4597;48.730;9.114;2024-02-23T05:33:14;0.57;;;0.57;;
9124;SDS011;4597;48.730;9.114;2024-02-23T05:35:39;1.40;;;0.77;;
9124;SDS011;4597;48.730;9.114;2024-02-23T05:38:05;1.47;;;0.90;;
9124;SDS011;4597;48.730;9.114;2024-02-23T05:40:31;1.73;;;1.30;;
9124;SDS011;4597;48.730;9.114;2024-02-23T05:42:57;2.27;;;0.80;;
9124;SDS011;4597;48.730;9.114;2024-02-23T05:45:23;0.30;;;0.30;;
9124;SDS011;4597;48.730;9.114;2024-02-23T05:47:49;0.80;;;0.77;;
9124;SDS011;4597;48.730;9.114;2024-02-23T05:50:14;0.40;;;0.40;;
9124;SDS011;4597;48.730;9.114;2024-02-23T05:52:40;4.50;;;1.77;;
9124;SDS011;4597;48.730;9.114;2024-02-23T05:55:06;1.07;;;1.00;;
9124;SDS011;4597;48.730;9.114;2024-02-23T05:57:32;2.13;;;1.03;;
9124;SDS011;4597;48.730;9.114;2024-02-23T05:59:58;0.90;;;0.90;;
9124;SDS011;4597;48.730;9.114;2024-02-23T06:02:23;0.50;;;0.50;;
9124;SDS011;4597;48.730;9.114;2024-02-23T06:04:49;0.50;;;0.50;;
9124;SDS011;4597;48.730;9.114;2024-02-23T06:07:15;1.77;;;0.53;;
9124;SDS011;4597;48.730;9.114;2024-02-23T06:09:41;0.63;;;0.60;;
9124;SDS011;4597;48.730;9.114;2024-02-23T06:12:07;0.70;;;0.60;;
9124;SDS011;4597;48.730;9.114;2024-02-23T06:14:33;0.50;;;0.50;;
9124;SDS011;4597;48.730;9.114;2024-02-23T06:16:59;1.57;;;0.70;;
9124;SDS011;4597;48.730;9.114;2024-02-23T06:19:24;0.63;;;0.57;;
9124;SDS011;4597;48.730;9.114;2024-02-23T06:21:50;1.00;;;0.60;;
9124;SDS011;4597;48.730;9.114;2024-02-23T06:24:16;2.10;;;0.97;;
9124;SDS011;4597;48.730;9.114;2024-02-23T06:26:42;0.60;;;0.60;;
9124;SDS011;4597;48.730;9.114;2024-02-23T06:29:08;0.53;;;0.53;;
9124;SDS011;4597;48.730;9.114;2024-02-23T06:31:36;1.00;;;0.87;;
9124;SDS011;4597;48.730;9.114;2024-02-23T06:34:03;1.17;;;0.70;;
9124;SDS011;4597;48.730;9.114;2024-02-23T06:36:28;0.70;;;0.70;;
9124;SDS011;4597;48.730;9.114;2024-02-23T06:38:54;1.43;;;0.80;;
9124;SDS011;4597;48.730;9.114;2024-02-23T06:41:19;1.23;;;0.57;;
9124;SDS011;4597;48.730;9.114;2024-02-23T06:43:45;1.67;;;0.80;;
9124;SDS011;4597;48.730;9.114;2024-02-23T06:46:11;0.53;;;0.53;;
9124;SDS011;4597;48.730;9.114;2024-02-23T06:48:36;0.50;;;0.50;;
9124;SDS011;4597;48.730;9.114;2024-02-23T06:51:02;0.90;;;0.80;;
9124;SDS011;4597;48.730;9.114;2024-02-23T06:53:29;0.67;;;0.60;;
9124;SDS011;4597;48.730;9.114;2024-02-23T06:55:54;0.77;;;0.77;;
9124;SDS011;4597;48.730;9.114;2024-02-23T06:58:20;0.77;;;0.57;;
9124;SDS011;4597;48.730;9.114;2024-02-23T07:00:46;0.73;;;0.67;;
9124;SDS011;4597;48.730;9.114;2024-02-23T07:03:12;0.83;;;0.70;;
9124;SDS011;4597;48.730;9.114;2024-02-23T07:05:39;0.50;;;0.50;;
9124;SDS011;4597;48.730;9.114;2024-02-23T07:08:07;0.50;;;0.50;;
9124;SDS011;4597;48.730;9.114;2024-02-23T07:10:32;0.70;;;0.70;;
9124;SDS011;4597;48.730;9.114;2024-02-23T07:12:58;0.53;;;0.53;;
9124;SDS011;4597;48.730;9.114;2024-02-23T07:15:23;0.43;;;0.43;;
9124;SDS011;4597;48.730;9.114;2024-02-23T07:17:50;3.10;;;0.80;;
9124;SDS011;4597;48.730;9.114;2024-02-23T07:20:19;1.37;;;0.60;;
9124;SDS011;4597;48.730;9.114;2024-02-23T07:22:45;1.60;;;0.70;;
9124;SDS011;4597;48.730;9.114;2024-02-23T07:25:11;1.83;;;0.90;;
9124;SDS011;4597;48.730;9.114;2024-02-23T07:27:40;4.60;;;0.97;;
9124;SDS011;4597;48.730;9.114;2024-02-23T07:30:06;0.83;;;0.83;;
9124;SDS011;4597;48.730;9.114;2024-02-23T07:32:32;0.70;;;0.70;;
9124;SDS011;4597;48.730;9.114;2024-02-23T07:34:57;0.77;;;0.70;;
9124;SDS011;4597;48.730;9.114;2024-02-23T07:37:22;1.00;;;0.90;;
9124;SDS011;4597;48.730;9.114;2024-02-23T07:39:50;0.83;;;0.83;;
9124;SDS011;4597;48.730;9.114;2024-02-23T07:42:16;2.93;;;1.23;;
9124;SDS011;4597;48.730;9.114;2024-02-23T07:44:43;2.60;;;1.30;;
9124;SDS011;4597;48.730;9.114;2024-02-23T07:47:09;2.03;;;1.60;;
9124;SDS011;4597;48.730;9.114;2024-02-23T07:49:35;1.07;;;1.07;;
9124;SDS011;4597;48.730;9.114;2024-02-23T07:52:00;1.40;;;1.13;;
9124;SDS011;4597;48.730;9.114;2024-02-23T07:54:26;0.63;;;0.63;;
9124;SDS011;4597;48.730;9.114;2024-02-23T07:56:51;1.37;;;1.00;;
9124;SDS011;4597;48.730;9.114;2024-02-23T07:59:17;1.67;;;1.53;;
9124;SDS011;4597;48.730;9.114;2024-02-23T08:01:42;2.80;;;1.40;;
9124;SDS011;4597;48.730;9.114;2024-02-23T08:04:08;3.57;;;2.00;;
9124;SDS011;4597;48.730;9.114;2024-02-23T08:06:33;2.10;;;1.90;;
9124;SDS011;4597;48.730;9.114;2024-02-23T08:08:59;4.07;;;2.30;;
9124;SDS011;4597;48.730;9.114;2024-02-23T08:11:24;7.40;;;3.13;;
9124;SDS011;4597;48.730;9.114;2024-02-23T08:13:50;3.03;;;2.20;;
9124;SDS011;4597;48.730;9.114;2024-02-23T08:16:15;3.00;;;1.83;;
9124;SDS011;4597;48.730;9.114;2024-02-23T08:18:42;3.57;;;1.53;;
9124;SDS011;4597;48.730;9.114;2024-02-23T08:21:07;2.30;;;1.30;;
9124;SDS011;4597;48.730;9.114;2024-02-23T08:23:35;2.97;;;1.13;;
9124;SDS011;4597;48.730;9.114;2024-02-23T08:26:01;1.63;;;0.97;;
9124;SDS011;4597;48.730;9.114;2024-02-23T08:28:26;4.80;;;1.20;;
9124;SDS011;4597;48.730;9.114;2024-02-23T08:30:52;1.53;;;0.80;;
9124;SDS011;4597;48.730;9.114;2024-02-23T08:33:18;0.80;;;0.80;;
9124;SDS011;4597;48.730;9.114;2024-02-23T08:35:43;1.00;;;0.97;;
9124;SDS011;4597;48.730;9.114;2024-02-23T08:38:09;1.77;;;0.87;;
9124;SDS011;4597;48.730;9.114;2024-02-23T08:40:35;0.90;;;0.90;;
9124;SDS011;4597;48.730;9.114;2024-02-23T08:43:00;0.80;;;0.80;;
9124;SDS011;4597;48.730;9.114;2024-02-23T08:45:26;0.60;;;0.60;;
9124;SDS011;4597;48.730;9.114;2024-02-23T08:47:51;1.03;;;0.90;;
9124;SDS011;4597;48.730;9.114;2024-02-23T08:50:17;0.60;;;0.60;;
9124;SDS011;4597;48.730;9.114;2024-02-23T08:52:42;4.17;;;1.17;;
9124;SDS011;4597;48.730;9.114;2024-02-23T08:55:08;8.63;;;3.67;;
9124;SDS011;4597;48.730;9.114;2024-02-23T08:57:34;8.33;;;4.17;;
9124;SDS011;4597;48.730;9.114;2024-02-23T08:59:59;8.13;;;4.60;;
9124;SDS011;4597;48.730;9.114;2024-02-23T09:02:25;0.80;;;0.60;;
9124;SDS011;4597;48.730;9.114;2024-02-23T09:04:51;0.97;;;0.67;;
9124;SDS011;4597;48.730;9.114;2024-02-23T09:07:16;0.90;;;0.60;;
9124;SDS011;4597;48.730;9.114;2024-02-23T09:09:45;0.70;;;0.70;;
9124;SDS011;4597;48.730;9.114;2024-02-23T09:12:10;0.87;;;0.77;;
9124;SDS011;4597;48.730;9.114;2024-02-23T09:14:36;0.50;;;0.50;;
9124;SDS011;4597;48.730;9.114;2024-02-23T09:17:03;1.60;;;0.90;;
9124;SDS011;4597;48.730;9.114;2024-02-23T09:19:30;0.77;;;0.77;;
9124;SDS011;4597;48.730;9.114;2024-02-23T09:21:56;0.40;;;0.40;;
9124;SDS011;4597;48.730;9.114;2024-02-23T09:24:21;1.03;;;0.70;;
9124;SDS011;4597;48.730;9.114;2024-02-23T09:26:47;0.67;;;0.60;;
9124;SDS011;4597;48.730;9.114;2024-02-23T09:29:13;1.00;;;0.60;;
9124;SDS011;4597;48.730;9.114;2024-02-23T09:31:38;4.83;;;2.03;;
9124;SDS011;4597;48.730;9.114;2024-02-23T09:34:04;4.13;;;1.57;;
9124;SDS011;4597;48.730;9.114;2024-02-23T09:36:29;11.57;;;2.37;;
9124;SDS011;4597;48.730;9.114;2024-02-23T09:38:55;0.97;;;0.80;;
9124;SDS011;4597;48.730;9.114;2024-02-23T09:41:22;1.37;;;0.63;;
9124;SDS011;4597;48.730;9.114;2024-02-23T09:43:48;1.33;;;0.60;;
9124;SDS011;4597;48.730;9.114;2024-02-23T09:46:15;0.60;;;0.60;;
9124;SDS011;4597;48.730;9.114;2024-02-23T09:48:45;0.60;;;0.60;;
9124;SDS011;4597;48.730;9.114;2024-02-23T09:51:13;0.70;;;0.70;;
9124;SDS011;4597;48.730;9.114;2024-02-23T09:53:40;0.83;;;0.57;;
9124;SDS011;4597;48.730;9.114;2024-02-23T09:56:07;0.73;;;0.70;;
9124;SDS011;4597;48.730;9.114;2024-02-23T09:58:34;1.97;;;0.60;;
9124;SDS011;4597;48.730;9.114;2024-02-23T10:01:01;1.00;;;0.80;;
9124;SDS011;4597;48.730;9.114;2024-02-23T10:03:28;1.53;;;0.80;;
9124;SDS011;4597;48.730;9.114;2024-02-23T10:05:58;1.10;;;0.50;;
9124;SDS011;4597;48.730;9.114;2024-02-23T10:08:26;0.50;;;0.50;;
9124;SDS011;4597;48.730;9.114;2024-02-23T10:10:52;1.70;;;0.93;;
9124;SDS011;4597;48.730;9.114;2024-02-23T10:13:21;0.50;;;0.50;;
9124;SDS011;4597;48.730;9.114;2024-02-23T10:15:51;1.40;;;0.80;;
9124;SDS011;4597;48.730;9.114;2024-02-23T10:18:17;0.53;;;0.53;;
9124;SDS011;4597;48.730;9.114;2024-02-23T10:20:43;1.33;;;0.70;;
9124;SDS011;4597;48.730;9.114;2024-02-23T10:23:08;1.73;;;0.93;;
9124;SDS011;4597;48.730;9.114;2024-02-23T10:25:34;0.60;;;0.60;;
9124;SDS011;4597;48.730;9.114;2024-02-23T10:28:01;1.00;;;0.70;;
9124;SDS011;4597;48.730;9.114;2024-02-23T10:30:27;0.67;;;0.60;;
9124;SDS011;4597;48.730;9.114;2024-02-23T10:32:54;1.27;;;0.70;;
9124;SDS011;4597;48.730;9.114;2024-02-23T10:35:21;0.50;;;0.50;;
9124;SDS011;4597;48.730;9.114;2024-02-23T10:37:48;1.23;;;0.60;;
9124;SDS011;4597;48.730;9.114;2024-02-23T10:40:18;0.80;;;0.80;;
9124;SDS011;4597;48.730;9.114;2024-02-23T10:42:45;2.03;;;0.50;;
9124;SDS011;4597;48.730;9.114;2024-02-23T10:45:17;0.97;;;0.53;;
9124;SDS011;4597;48.730;9.114;2024-02-23T10:47:43;0.60;;;0.60;;
9124;SDS011;4597;48.730;9.114;2024-02-23T10:50:09;0.87;;;0.67;;
9124;SDS011;4597;48.730;9.114;2024-02-23T10:52:39;1.57;;;0.80;;
9124;SDS011;4597;48.730;9.114;2024-02-23T10:55:07;1.00;;;0.50;;
9124;SDS011;4597;48.730;9.114;2024-02-23T10:57:34;1.43;;;0.70;;
9124;SDS011;4597;48.730;9.114;2024-02-23T11:00:00;1.17;;;0.80;;
9124;SDS011;4597;48.730;9.114;2024-02-23T11:02:30;1.23;;;0.70;;
9124;SDS011;4597;48.730;9.114;2024-02-23T11:04:57;1.23;;;0.53;;
9124;SDS011;4597;48.730;9.114;2024-02-23T11:07:24;0.50;;;0.50;;
9124;SDS011;4597;48.730;9.114;2024-02-23T11:10:00;1.27;;;0.90;;
9124;SDS011;4597;48.730;9.114;2024-02-23T11:12:26;0.80;;;0.80;;
9124;SDS011;4597;48.730;9.114;2024-02-23T11:14:58;0.70;;;0.70;;
9124;SDS011;4597;48.730;9.114;2024-02-23T11:17:28;1.93;;;0.80;;
9124;SDS011;4597;48.730;9.114;2024-02-23T11:19:55;0.60;;;0.60;;
9124;SDS011;4597;48.730;9.114;2024-02-23T11:24:51;2.47;;;0.90;;
9124;SDS011;4597;48.730;9.114;2024-02-23T11:27:17;0.77;;;0.70;;
9124;SDS011;4597;48.730;9.114;2024-02-23T11:29:43;1.10;;;0.63;;
9124;SDS011;4597;48.730;9.114;2024-02-23T11:32:14;1.33;;;0.80;;
9124;SDS011;4597;48.730;9.114;2024-02-23T11:34:53;1.53;;;0.93;;
9124;SDS011;4597;48.730;9.114;2024-02-23T11:37:21;0.80;;;0.80;;
9124;SDS011;4597;48.730;9.114;2024-02-23T11:39:46;2.13;;;0.60;;
9124;SDS011;4597;48.730;9.114;2024-02-23T11:42:12;0.50;;;0.50;;
9124;SDS011;4597;48.730;9.114;2024-02-23T11:44:39;0.60;;;0.60;;
9124;SDS011;4597;48.730;9.114;2024-02-23T11:47:06;0.70;;;0.70;;
9124;SDS011;4597;48.730;9.114;2024-02-23T11:49:32;0.60;;;0.60;;
9124;SDS011;4597;48.730;9.114;2024-02-23T11:51:58;2.23;;;0.70;;
9124;SDS011;4597;48.730;9.114;2024-02-23T11:54:24;2.20;;;0.50;;
9124;SDS011;4597;48.730;9.114;2024-02-23T11:56:49;0.77;;;0.53;;
9124;SDS011;4597;48.730;9.114;2024-02-23T11:59:21;0.67;;;0.60;;
9124;SDS011;4597;48.730;9.114;2024-02-23T12:01:48;1.60;;;0.73;;
9124;SDS011;4597;48.730;9.114;2024-02-23T12:04:16;0.80;;;0.60;;
9124;SDS011;4597;48.730;9.114;2024-02-23T12:06:42;0.50;;;0.50;;
9124;SDS011;4597;48.730;9.114;2024-02-23T12:09:07;1.33;;;0.60;;
9124;SDS011;4597;48.730;9.114;2024-02-23T12:11:34;1.00;;;1.00;;
9124;SDS011;4597;48.730;9.114;2024-02-23T12:14:00;1.57;;;1.33;;
9124;SDS011;4597;48.730;9.114;2024-02-23T12:16:32;1.00;;;1.00;;
9124;SDS011;4597;48.730;9.114;2024-02-23T12:19:01;0.93;;;0.83;;
9124;SDS011;4597;48.730;9.114;2024-02-23T12:21:27;2.20;;;0.80;;
9124;SDS011;4597;48.730;9.114;2024-02-23T12:23:53;0.90;;;0.87;;
9124;SDS011;4597;48.730;9.114;2024-02-23T12:26:19;1.27;;;1.27;;
9124;SDS011;4597;48.730;9.114;2024-02-23T12:28:45;2.50;;;0.90;;
9124;SDS011;4597;48.730;9.114;2024-02-23T12:31:11;2.10;;;1.57;;
9124;SDS011;4597;48.730;9.114;2024-02-23T12:33:38;1.63;;;1.20;;
9124;SDS011;4597;48.730;9.114;2024-02-23T12:36:12;2.13;;;1.40;;
9124;SDS011;4597;48.730;9.114;2024-02-23T12:38:38;3.63;;;1.10;;
9124;SDS011;4597;48.730;9.114;2024-02-23T12:41:04;4.57;;;1.77;;
9124;SDS011;4597;48.730;9.114;2024-02-23T12:43:29;2.30;;;1.50;;
9124;SDS011;4597;48.730;9.114;2024-02-23T12:45:55;1.10;;;0.93;;
9124;SDS011;4597;48.730;9.114;2024-02-23T12:48:22;1.13;;;0.97;;
9124;SDS011;4597;48.730;9.114;2024-02-23T12:50:48;0.93;;;0.90;;
9124;SDS011;4597;48.730;9.114;2024-02-23T12:56:03;1.50;;;1.23;;
9124;SDS011;4597;48.730;9.114;2024-02-23T12:58:33;0.80;;;0.80;;
9124;SDS011;4597;48.730;9.114;2024-02-23T13:01:00;1.47;;;1.00;;
9124;SDS011;4597;48.730;9.114;2024-02-23T13:03:26;1.47;;;0.87;;
9124;SDS011;4597;48.730;9.114;2024-02-23T13:05:52;0.80;;;0.60;;
9124;SDS011;4597;48.730;9.114;2024-02-23T13:08:21;1.90;;;1.10;;
9124;SDS011;4597;48.730;9.114;2024-02-23T13:10:47;2.03;;;1.07;;
9124;SDS011;4597;48.730;9.114;2024-02-23T13:13:13;2.47;;;1.20;;
9124;SDS011;4597;48.730;9.114;2024-02-23T13:15:39;2.70;;;1.53;;
9124;SDS011;4597;48.730;9.114;2024-02-23T13:18:06;0.83;;;0.83;;
9124;SDS011;4597;48.730;9.114;2024-02-23T13:20:31;0.70;;;0.67;;
9124;SDS011;4597;48.730;9.114;2024-02-23T13:22:57;1.43;;;0.97;;
9124;SDS011;4597;48.730;9.114;2024-02-23T13:25:22;1.20;;;0.90;;
9124;SDS011;4597;48.730;9.114;2024-02-23T13:27:48;1.33;;;0.83;;
9124;SDS011;4597;48.730;9.114;2024-02-23T13:30:13;0.63;;;0.63;;
9124;SDS011;4597;48.730;9.114;2024-02-23T13:32:39;0.93;;;0.70;;
9124;SDS011;4597;48.730;9.114;2024-02-23T13:35:05;1.50;;;0.97;;
9124;SDS011;4597;48.730;9.114;2024-02-23T13:37:31;2.17;;;0.70;;
9124;SDS011;4597;48.730;9.114;2024-02-23T13:39:57;2.27;;;0.83;;
9124;SDS011;4597;48.730;9.114;2024-02-23T13:42:23;0.67;;;0.67;;
9124;SDS011;4597;48.730;9.114;2024-02-23T13:44:48;0.80;;;0.80;;
9124;SDS011;4597;48.730;9.114;2024-02-23T13:47:14;1.53;;;1.10;;
9124;SDS011;4597;48.730;9.114;2024-02-23T13:49:39;2.17;;;1.20;;
9124;SDS011;4597;48.730;9.114;2024-02-23T13:52:05;2.87;;;1.00;;
9124;SDS011;4597;48.730;9.114;2024-02-23T13:54:30;1.80;;;1.00;;
9124;SDS011;4597;48.730;9.114;2024-02-23T13:56:56;1.60;;;1.07;;
9124;SDS011;4597;48.730;9.114;2024-02-23T13:59:21;0.80;;;0.80;;
9124;SDS011;4597;48.730;9.114;2024-02-23T14:01:47;1.50;;;0.83;;
9124;SDS011;4597;48.730;9.114;2024-02-23T14:04:12;2.30;;;0.77;;
9124;SDS011;4597;48.730;9.114;2024-02-23T14:06:38;0.90;;;0.80;;
9124;SDS011;4597;48.730;9.114;2024-02-23T14:09:04;0.80;;;0.80;;
9124;SDS011;4597;48.730;9.114;2024-02-23T14:11:29;0.80;;;0.80;;
9124;SDS011;4597;48.730;9.114;2024-02-23T14:13:55;2.03;;;0.83;;
9124;SDS011;4597;48.730;9.114;2024-02-23T14:16:21;1.60;;;1.13;;
9124;SDS011;4597;48.730;9.114;2024-02-23T14:18:48;0.60;;;0.60;;
9124;SDS011;4597;48.730;9.114;2024-02-23T14:21:14;1.80;;;1.10;;
9124;SDS011;4597;48.730;9.114;2024-02-23T14:23:41;1.30;;;1.20;;
9124;SDS011;4597;48.730;9.114;2024-02-23T14:26:06;1.13;;;1.10;;
9124;SDS011;4597;48.730;9.114;2024-02-23T14:28:32;0.80;;;0.80;;
9124;SDS011;4597;48.730;9.114;2024-02-23T14:30:58;1.10;;;0.90;;
9124;SDS011;4597;48.730;9.114;2024-02-23T14:33:23;1.53;;;1.40;;
9124;SDS011;4597;48.730;9.114;2024-02-23T14:35:49;2.03;;;0.80;;
9124;SDS011;4597;48.730;9.114;2024-02-23T14:38:15;0.90;;;0.90;;
9124;SDS011;4597;48.730;9.114;2024-02-23T14:40:41;0.77;;;0.77;;
9124;SDS011;4597;48.730;9.114;2024-02-23T14:43:07;1.00;;;1.00;;
9124;SDS011;4597;48.730;9.114;2024-02-23T14:45:33;1.43;;;1.23;;
9124;SDS011;4597;48.730;9.114;2024-02-23T14:47:58;1.80;;;1.00;;
9124;SDS011;4597;48.730;9.114;2024-02-23T14:50:24;1.23;;;1.10;;
9124;SDS011;4597;48.730;9.114;2024-02-23T14:52:49;2.00;;;0.90;;
9124;SDS011;4597;48.730;9.114;2024-02-23T14:55:15;0.80;;;0.80;;
9124;SDS011;4597;48.730;9.114;2024-02-23T14:57:41;2.87;;;1.03;;
9124;SDS011;4597;48.730;9.114;2024-02-23T15:00:07;1.43;;;0.93;;
9124;SDS011;4597;48.730;9.114;2024-02-23T15:02:33;1.43;;;0.80;;
9124;SDS011;4597;48.730;9.114;2024-02-23T15:04:59;1.33;;;1.00;;
9124;SDS011;4597;48.730;9.114;2024-02-23T15:07:24;0.90;;;0.87;;
9124;SDS011;4597;48.730;9.114;2024-02-23T15:09:50;2.00;;;0.87;;
9124;SDS011;4597;48.730;9.114;2024-02-23T15:12:15;1.30;;;0.97;;